sensor_id;sensor_type;location;lat;lon;timestamp;P1;durP1;ratioP1;P2;durP2;ratioP2
1014;SDS011;8170;48.118;11.628;2023-04-25T00:00:19;2.97;;;2.50;;
1014;SDS011;8170;48.118;11.628;2023-04-25T00:01:23;3.03;;;2.20;;
1014;SDS011;8170;48.118;11.628;2023-04-25T00:02:25;3.10;;;2.20;;
1014;SDS011;8170;48.118;11.628;2023-04-25T00:03:29;2.47;;;2.15;;
1014;SDS011;8170;48.118;11.628;2023-04-25T00:04:40;2.63;;;2.20;;
1014;SDS011;8170;48.118;11.628;2023-04-25T00:05:46;2.83;;;2.10;;
1014;SDS011;8170;48.118;11.628;2023-04-25T00:06:53;2.38;;;1.75;;
1014;SDS011;8170;48.118;11.628;2023-04-25T00:08:08;2.40;;;2.20;;
1014;SDS011;8170;48.118;11.628;2023-04-25T00:09:21;2.80;;;2.13;;
1014;SDS011;8170;48.118;11.628;2023-04-25T00:10:30;3.33;;;2.40;;
1014;SDS011;8170;48.118;11.628;2023-04-25T00:11:37;5.53;;;2.47;;
1014;SDS011;8170;48.118;11.628;2023-04-25T00:12:44;3.80;;;2.20;;
1014;SDS011;8170;48.118;11.628;2023-04-25T00:13:51;2.65;;;2.40;;
1014;SDS011;8170;48.118;11.628;2023-04-25T00:14:59;3.20;;;2.10;;
1014;SDS011;8170;48.118;11.628;2023-04-25T00:17:09;3.25;;;2.30;;
1014;SDS011;8170;48.118;11.628;2023-04-25T00:18:12;2.72;;;2.10;;
1014;SDS011;8170;48.118;11.628;2023-04-25T00:19:17;3.08;;;2.25;;
1014;SDS011;8170;48.118;11.628;2023-04-25T00:20:20;2.60;;;1.70;;
1014;SDS011;8170;48.118;11.628;2023-04-25T00:21:24;2.60;;;2.15;;
1014;SDS011;8170;48.118;11.628;2023-04-25T00:22:30;4.25;;;2.28;;
1014;SDS011;8170;48.118;11.628;2023-04-25T00:23:52;2.97;;;2.30;;
1014;SDS011;8170;48.118;11.628;2023-04-25T00:24:54;3.42;;;2.30;;
1014;SDS011;8170;48.118;11.628;2023-04-25T00:26:03;2.25;;;2.05;;
1014;SDS011;8170;48.118;11.628;2023-04-25T00:28:33;2.22;;;2.00;;
1014;SDS011;8170;48.118;11.628;2023-04-25T00:29:42;2.67;;;1.75;;
1014;SDS011;8170;48.118;11.628;2023-04-25T00:30:45;2.47;;;2.28;;
1014;SDS011;8170;48.118;11.628;2023-04-25T00:31:48;3.20;;;2.05;;
1014;SDS011;8170;48.118;11.628;2023-04-25T00:32:52;2.40;;;2.10;;
1014;SDS011;8170;48.118;11.628;2023-04-25T00:33:54;3.30;;;2.10;;
1014;SDS011;8170;48.118;11.628;2023-04-25T00:35:04;2.30;;;1.90;;
1014;SDS011;8170;48.118;11.628;2023-04-25T00:36:08;2.33;;;2.05;;
1014;SDS011;8170;48.118;11.628;2023-04-25T00:37:16;2.90;;;1.80;;
1014;SDS011;8170;48.118;11.628;2023-04-25T00:38:20;2.35;;;1.90;;
1014;SDS011;8170;48.118;11.628;2023-04-25T00:39:25;3.17;;;2.60;;
1014;SDS011;8170;48.118;11.628;2023-04-25T00:40:31;2.40;;;1.90;;
1014;SDS011;8170;48.118;11.628;2023-04-25T00:41:34;4.10;;;2.40;;
1014;SDS011;8170;48.118;11.628;2023-04-25T00:42:38;4.05;;;2.35;;
1014;SDS011;8170;48.118;11.628;2023-04-25T00:43:43;2.50;;;2.30;;
1014;SDS011;8170;48.118;11.628;2023-04-25T00:44:50;2.72;;;2.40;;
1014;SDS011;8170;48.118;11.628;2023-04-25T00:45:54;2.47;;;2.28;;
1014;SDS011;8170;48.118;11.628;2023-04-25T00:46:59;2.80;;;2.50;;
1014;SDS011;8170;48.118;11.628;2023-04-25T00:48:06;3.22;;;2.08;;
1014;SDS011;8170;48.118;11.628;2023-04-25T00:49:10;2.85;;;2.10;;
1014;SDS011;8170;48.118;11.628;2023-04-25T00:50:17;3.60;;;2.35;;
1014;SDS011;8170;48.118;11.628;2023-04-25T00:51:22;2.17;;;1.92;;
1014;SDS011;8170;48.118;11.628;2023-04-25T00:52:25;2.83;;;2.55;;
1014;SDS011;8170;48.118;11.628;2023-04-25T00:53:28;3.08;;;1.90;;
1014;SDS011;8170;48.118;11.628;2023-04-25T00:54:34;3.65;;;2.60;;
1014;SDS011;8170;48.118;11.628;2023-04-25T00:55:39;2.25;;;2.00;;
1014;SDS011;8170;48.118;11.628;2023-04-25T00:56:42;3.60;;;2.33;;
1014;SDS011;8170;48.118;11.628;2023-04-25T00:57:48;3.35;;;2.15;;
1014;SDS011;8170;48.118;11.628;2023-04-25T00:58:51;3.80;;;2.05;;
1014;SDS011;8170;48.118;11.628;2023-04-25T00:59:57;3.17;;;2.28;;
1014;SDS011;8170;48.118;11.628;2023-04-25T01:01:02;3.35;;;2.03;;
1014;SDS011;8170;48.118;11.628;2023-04-25T01:02:05;3.70;;;2.38;;
1014;SDS011;8170;48.118;11.628;2023-04-25T01:03:08;2.75;;;2.10;;
1014;SDS011;8170;48.118;11.628;2023-04-25T01:04:13;3.35;;;2.15;;
1014;SDS011;8170;48.118;11.628;2023-04-25T01:05:19;2.47;;;2.28;;
1014;SDS011;8170;48.118;11.628;2023-04-25T01:06:22;4.22;;;2.25;;
1014;SDS011;8170;48.118;11.628;2023-04-25T01:07:25;4.32;;;2.50;;
1014;SDS011;8170;48.118;11.628;2023-04-25T01:08:28;2.70;;;2.25;;
1014;SDS011;8170;48.118;11.628;2023-04-25T01:09:31;5.10;;;2.30;;
1014;SDS011;8170;48.118;11.628;2023-04-25T01:10:36;2.80;;;2.00;;
1014;SDS011;8170;48.118;11.628;2023-04-25T01:11:38;2.40;;;2.00;;
1014;SDS011;8170;48.118;11.628;2023-04-25T01:12:41;2.22;;;2.03;;
1014;SDS011;8170;48.118;11.628;2023-04-25T01:13:44;2.42;;;1.83;;
1014;SDS011;8170;48.118;11.628;2023-04-25T01:14:47;3.00;;;2.05;;
1014;SDS011;8170;48.118;11.628;2023-04-25T01:15:49;3.80;;;2.45;;
1014;SDS011;8170;48.118;11.628;2023-04-25T01:16:53;6.25;;;2.40;;
1014;SDS011;8170;48.118;11.628;2023-04-25T01:17:56;2.70;;;2.35;;
1014;SDS011;8170;48.118;11.628;2023-04-25T01:19:03;2.80;;;2.20;;
1014;SDS011;8170;48.118;11.628;2023-04-25T01:20:10;5.00;;;2.90;;
1014;SDS011;8170;48.118;11.628;2023-04-25T01:21:16;3.25;;;2.15;;
1014;SDS011;8170;48.118;11.628;2023-04-25T01:22:20;4.13;;;2.20;;
1014;SDS011;8170;48.118;11.628;2023-04-25T01:23:25;2.47;;;2.05;;
1014;SDS011;8170;48.118;11.628;2023-04-25T01:24:27;3.00;;;2.55;;
1014;SDS011;8170;48.118;11.628;2023-04-25T01:25:31;2.50;;;2.28;;
1014;SDS011;8170;48.118;11.628;2023-04-25T01:26:33;3.83;;;2.65;;
1014;SDS011;8170;48.118;11.628;2023-04-25T01:27:38;4.82;;;2.20;;
1014;SDS011;8170;48.118;11.628;2023-04-25T01:28:41;2.83;;;2.00;;
1014;SDS011;8170;48.118;11.628;2023-04-25T01:29:46;2.95;;;2.20;;
1014;SDS011;8170;48.118;11.628;2023-04-25T01:30:49;2.50;;;2.30;;
1014;SDS011;8170;48.118;11.628;2023-04-25T01:31:54;2.65;;;2.10;;
1014;SDS011;8170;48.118;11.628;2023-04-25T01:32:57;3.17;;;1.80;;
1014;SDS011;8170;48.118;11.628;2023-04-25T01:34:02;3.92;;;2.53;;
1014;SDS011;8170;48.118;11.628;2023-04-25T01:35:06;3.58;;;2.17;;
1014;SDS011;8170;48.118;11.628;2023-04-25T01:36:11;2.15;;;1.95;;
1014;SDS011;8170;48.118;11.628;2023-04-25T01:37:17;4.10;;;2.50;;
1014;SDS011;8170;48.118;11.628;2023-04-25T01:38:19;2.33;;;2.08;;
1014;SDS011;8170;48.118;11.628;2023-04-25T01:39:23;2.78;;;2.35;;
1014;SDS011;8170;48.118;11.628;2023-04-25T01:40:26;2.67;;;2.33;;
1014;SDS011;8170;48.118;11.628;2023-04-25T01:41:31;2.95;;;2.03;;
1014;SDS011;8170;48.118;11.628;2023-04-25T01:42:34;2.42;;;2.22;;
1014;SDS011;8170;48.118;11.628;2023-04-25T01:43:38;4.38;;;3.00;;
1014;SDS011;8170;48.118;11.628;2023-04-25T01:44:41;3.67;;;2.20;;
1014;SDS011;8170;48.118;11.628;2023-04-25T01:45:44;3.65;;;1.80;;
1014;SDS011;8170;48.118;11.628;2023-04-25T01:46:48;3.75;;;2.55;;
1014;SDS011;8170;48.118;11.628;2023-04-25T01:47:51;2.60;;;2.40;;
1014;SDS011;8170;48.118;11.628;2023-04-25T01:48:54;3.47;;;2.05;;
1014;SDS011;8170;48.118;11.628;2023-04-25T01:49:56;2.90;;;2.00;;
1014;SDS011;8170;48.118;11.628;2023-04-25T01:51:00;3.42;;;2.75;;
1014;SDS011;8170;48.118;11.628;2023-04-25T01:52:03;2.92;;;2.63;;
1014;SDS011;8170;48.118;11.628;2023-04-25T01:53:08;4.45;;;2.30;;
1014;SDS011;8170;48.118;11.628;2023-04-25T01:54:11;2.83;;;2.10;;
1014;SDS011;8170;48.118;11.628;2023-04-25T01:55:15;2.63;;;2.30;;
1014;SDS011;8170;48.118;11.628;2023-04-25T01:56:29;2.70;;;1.75;;
1014;SDS011;8170;48.118;11.628;2023-04-25T01:57:33;3.13;;;2.40;;
1014;SDS011;8170;48.118;11.628;2023-04-25T01:58:36;3.38;;;2.40;;
1014;SDS011;8170;48.118;11.628;2023-04-25T01:59:55;3.08;;;2.35;;
1014;SDS011;8170;48.118;11.628;2023-04-25T02:01:13;2.63;;;2.42;;
1014;SDS011;8170;48.118;11.628;2023-04-25T02:02:29;2.70;;;2.50;;
1014;SDS011;8170;48.118;11.628;2023-04-25T02:03:31;3.67;;;2.45;;
1014;SDS011;8170;48.118;11.628;2023-04-25T02:04:37;3.50;;;2.63;;
1014;SDS011;8170;48.118;11.628;2023-04-25T02:05:40;3.05;;;2.35;;
1014;SDS011;8170;48.118;11.628;2023-04-25T02:06:46;3.50;;;2.53;;
1014;SDS011;8170;48.118;11.628;2023-04-25T02:07:49;3.20;;;2.88;;
1014;SDS011;8170;48.118;11.628;2023-04-25T02:08:53;3.42;;;2.60;;
1014;SDS011;8170;48.118;11.628;2023-04-25T02:09:56;3.03;;;2.47;;
1014;SDS011;8170;48.118;11.628;2023-04-25T02:11:01;2.58;;;2.35;;
1014;SDS011;8170;48.118;11.628;2023-04-25T02:12:11;5.47;;;3.17;;
1014;SDS011;8170;48.118;11.628;2023-04-25T02:13:34;4.75;;;2.60;;
1014;SDS011;8170;48.118;11.628;2023-04-25T02:14:49;4.00;;;2.40;;
1014;SDS011;8170;48.118;11.628;2023-04-25T02:16:00;2.92;;;2.35;;
1014;SDS011;8170;48.118;11.628;2023-04-25T02:17:04;2.97;;;2.45;;
1014;SDS011;8170;48.118;11.628;2023-04-25T02:18:07;3.33;;;2.83;;
1014;SDS011;8170;48.118;11.628;2023-04-25T02:19:11;2.83;;;2.50;;
1014;SDS011;8170;48.118;11.628;2023-04-25T02:20:14;3.83;;;2.30;;
1014;SDS011;8170;48.118;11.628;2023-04-25T02:21:18;3.40;;;2.47;;
1014;SDS011;8170;48.118;11.628;2023-04-25T02:22:20;3.00;;;2.70;;
1014;SDS011;8170;48.118;11.628;2023-04-25T02:23:24;4.60;;;2.00;;
1014;SDS011;8170;48.118;11.628;2023-04-25T02:24:27;2.85;;;2.25;;
1014;SDS011;8170;48.118;11.628;2023-04-25T02:25:31;3.50;;;2.17;;
1014;SDS011;8170;48.118;11.628;2023-04-25T02:26:33;3.97;;;2.90;;
1014;SDS011;8170;48.118;11.628;2023-04-25T02:27:36;3.58;;;2.50;;
1014;SDS011;8170;48.118;11.628;2023-04-25T02:28:39;2.90;;;2.30;;
1014;SDS011;8170;48.118;11.628;2023-04-25T02:29:43;4.25;;;2.45;;
1014;SDS011;8170;48.118;11.628;2023-04-25T02:30:46;5.28;;;2.80;;
1014;SDS011;8170;48.118;11.628;2023-04-25T02:31:49;3.42;;;2.50;;
1014;SDS011;8170;48.118;11.628;2023-04-25T02:32:51;3.97;;;2.53;;
1014;SDS011;8170;48.118;11.628;2023-04-25T02:33:55;2.40;;;2.20;;
1014;SDS011;8170;48.118;11.628;2023-04-25T02:34:57;2.55;;;2.22;;
1014;SDS011;8170;48.118;11.628;2023-04-25T02:36:05;3.78;;;2.97;;
1014;SDS011;8170;48.118;11.628;2023-04-25T02:37:07;2.85;;;2.30;;
1014;SDS011;8170;48.118;11.628;2023-04-25T02:38:11;4.80;;;2.40;;
1014;SDS011;8170;48.118;11.628;2023-04-25T02:39:14;3.35;;;2.63;;
1014;SDS011;8170;48.118;11.628;2023-04-25T02:40:18;3.08;;;2.20;;
1014;SDS011;8170;48.118;11.628;2023-04-25T02:41:21;3.15;;;2.35;;
1014;SDS011;8170;48.118;11.628;2023-04-25T02:42:24;3.88;;;2.58;;
1014;SDS011;8170;48.118;11.628;2023-04-25T02:43:27;2.80;;;2.30;;
1014;SDS011;8170;48.118;11.628;2023-04-25T02:44:30;3.17;;;2.35;;
1014;SDS011;8170;48.118;11.628;2023-04-25T02:45:33;4.40;;;3.30;;
1014;SDS011;8170;48.118;11.628;2023-04-25T02:46:36;3.70;;;2.75;;
1014;SDS011;8170;48.118;11.628;2023-04-25T02:47:40;3.20;;;2.50;;
1014;SDS011;8170;48.118;11.628;2023-04-25T02:48:45;3.00;;;2.55;;
1014;SDS011;8170;48.118;11.628;2023-04-25T02:49:47;2.20;;;1.90;;
1014;SDS011;8170;48.118;11.628;2023-04-25T02:50:50;2.80;;;2.47;;
1014;SDS011;8170;48.118;11.628;2023-04-25T02:51:53;11.18;;;2.58;;
1014;SDS011;8170;48.118;11.628;2023-04-25T02:52:56;2.80;;;2.50;;
1014;SDS011;8170;48.118;11.628;2023-04-25T02:54:04;2.85;;;2.42;;
1014;SDS011;8170;48.118;11.628;2023-04-25T02:55:14;3.55;;;2.25;;
1014;SDS011;8170;48.118;11.628;2023-04-25T02:56:21;4.30;;;2.50;;
1014;SDS011;8170;48.118;11.628;2023-04-25T02:57:25;3.40;;;2.60;;
1014;SDS011;8170;48.118;11.628;2023-04-25T02:58:33;3.25;;;2.22;;
1014;SDS011;8170;48.118;11.628;2023-04-25T02:59:36;2.15;;;1.95;;
1014;SDS011;8170;48.118;11.628;2023-04-25T03:00:39;3.85;;;2.55;;
1014;SDS011;8170;48.118;11.628;2023-04-25T03:01:41;2.83;;;2.13;;
1014;SDS011;8170;48.118;11.628;2023-04-25T03:02:45;2.47;;;1.83;;
1014;SDS011;8170;48.118;11.628;2023-04-25T03:03:47;2.30;;;2.10;;
1014;SDS011;8170;48.118;11.628;2023-04-25T03:04:51;3.55;;;2.53;;
1014;SDS011;8170;48.118;11.628;2023-04-25T03:06:14;2.92;;;2.47;;
1014;SDS011;8170;48.118;11.628;2023-04-25T03:07:35;2.97;;;2.30;;
1014;SDS011;8170;48.118;11.628;2023-04-25T03:09:07;2.33;;;2.13;;
1014;SDS011;8170;48.118;11.628;2023-04-25T03:10:35;2.80;;;2.40;;
1014;SDS011;8170;48.118;11.628;2023-04-25T03:11:50;4.28;;;2.67;;
1014;SDS011;8170;48.118;11.628;2023-04-25T03:13:01;2.80;;;2.03;;
1014;SDS011;8170;48.118;11.628;2023-04-25T03:14:04;2.72;;;2.50;;
1014;SDS011;8170;48.118;11.628;2023-04-25T03:15:10;3.13;;;2.50;;
1014;SDS011;8170;48.118;11.628;2023-04-25T03:16:21;5.65;;;2.78;;
1014;SDS011;8170;48.118;11.628;2023-04-25T03:17:35;3.78;;;2.45;;
1014;SDS011;8170;48.118;11.628;2023-04-25T03:18:42;4.10;;;2.60;;
1014;SDS011;8170;48.118;11.628;2023-04-25T03:19:46;4.18;;;2.92;;
1014;SDS011;8170;48.118;11.628;2023-04-25T03:20:49;5.60;;;2.60;;
1014;SDS011;8170;48.118;11.628;2023-04-25T03:21:56;4.88;;;2.50;;
1014;SDS011;8170;48.118;11.628;2023-04-25T03:23:07;2.60;;;2.33;;
1014;SDS011;8170;48.118;11.628;2023-04-25T03:24:44;2.92;;;2.22;;
1014;SDS011;8170;48.118;11.628;2023-04-25T03:26:07;2.40;;;2.20;;
1014;SDS011;8170;48.118;11.628;2023-04-25T03:27:29;5.15;;;2.60;;
1014;SDS011;8170;48.118;11.628;2023-04-25T03:28:43;4.65;;;2.78;;
1014;SDS011;8170;48.118;11.628;2023-04-25T03:29:55;3.25;;;2.35;;
1014;SDS011;8170;48.118;11.628;2023-04-25T03:31:03;3.65;;;3.10;;
1014;SDS011;8170;48.118;11.628;2023-04-25T03:32:09;4.15;;;2.50;;
1014;SDS011;8170;48.118;11.628;2023-04-25T03:33:23;4.57;;;2.47;;
1014;SDS011;8170;48.118;11.628;2023-04-25T03:34:26;2.78;;;2.45;;
1014;SDS011;8170;48.118;11.628;2023-04-25T03:35:33;4.30;;;2.80;;
1014;SDS011;8170;48.118;11.628;2023-04-25T03:36:35;2.90;;;2.60;;
1014;SDS011;8170;48.118;11.628;2023-04-25T03:37:42;3.55;;;2.92;;
1014;SDS011;8170;48.118;11.628;2023-04-25T03:38:51;2.40;;;1.90;;
1014;SDS011;8170;48.118;11.628;2023-04-25T03:39:55;5.38;;;2.80;;
1014;SDS011;8170;48.118;11.628;2023-04-25T03:41:04;2.63;;;2.30;;
1014;SDS011;8170;48.118;11.628;2023-04-25T03:42:19;3.53;;;2.42;;
1014;SDS011;8170;48.118;11.628;2023-04-25T03:43:26;4.50;;;2.60;;
1014;SDS011;8170;48.118;11.628;2023-04-25T03:44:34;2.75;;;2.20;;
1014;SDS011;8170;48.118;11.628;2023-04-25T03:45:37;3.63;;;2.42;;
1014;SDS011;8170;48.118;11.628;2023-04-25T03:46:40;3.13;;;2.70;;
1014;SDS011;8170;48.118;11.628;2023-04-25T03:47:44;3.70;;;2.10;;
1014;SDS011;8170;48.118;11.628;2023-04-25T03:48:46;2.50;;;2.30;;
1014;SDS011;8170;48.118;11.628;2023-04-25T03:49:55;2.13;;;1.90;;
1014;SDS011;8170;48.118;11.628;2023-04-25T03:50:58;2.92;;;2.38;;
1014;SDS011;8170;48.118;11.628;2023-04-25T03:52:02;3.80;;;2.60;;
1014;SDS011;8170;48.118;11.628;2023-04-25T03:53:12;5.55;;;2.10;;
1014;SDS011;8170;48.118;11.628;2023-04-25T03:54:40;3.20;;;2.53;;
1014;SDS011;8170;48.118;11.628;2023-04-25T03:55:47;3.88;;;2.22;;
1014;SDS011;8170;48.118;11.628;2023-04-25T03:56:50;3.13;;;2.20;;
1014;SDS011;8170;48.118;11.628;2023-04-25T03:57:57;5.78;;;2.35;;
1014;SDS011;8170;48.118;11.628;2023-04-25T03:59:02;3.13;;;2.05;;
1014;SDS011;8170;48.118;11.628;2023-04-25T04:00:06;2.75;;;2.47;;
1014;SDS011;8170;48.118;11.628;2023-04-25T04:01:15;4.18;;;2.72;;
1014;SDS011;8170;48.118;11.628;2023-04-25T04:02:18;5.00;;;2.58;;
1014;SDS011;8170;48.118;11.628;2023-04-25T04:03:21;3.45;;;2.30;;
1014;SDS011;8170;48.118;11.628;2023-04-25T04:04:26;3.35;;;2.33;;
1014;SDS011;8170;48.118;11.628;2023-04-25T04:05:28;4.22;;;2.45;;
1014;SDS011;8170;48.118;11.628;2023-04-25T04:06:32;4.07;;;2.55;;
1014;SDS011;8170;48.118;11.628;2023-04-25T04:07:42;2.97;;;2.00;;
1014;SDS011;8170;48.118;11.628;2023-04-25T04:08:46;3.33;;;2.20;;
1014;SDS011;8170;48.118;11.628;2023-04-25T04:09:48;2.30;;;2.05;;
1014;SDS011;8170;48.118;11.628;2023-04-25T04:11:00;2.90;;;1.75;;
1014;SDS011;8170;48.118;11.628;2023-04-25T04:12:04;2.45;;;2.13;;
1014;SDS011;8170;48.118;11.628;2023-04-25T04:13:07;3.25;;;2.25;;
1014;SDS011;8170;48.118;11.628;2023-04-25T04:14:12;3.38;;;2.10;;
1014;SDS011;8170;48.118;11.628;2023-04-25T04:15:18;2.65;;;1.83;;
1014;SDS011;8170;48.118;11.628;2023-04-25T04:16:22;2.75;;;1.73;;
1014;SDS011;8170;48.118;11.628;2023-04-25T04:17:26;2.47;;;1.75;;
1014;SDS011;8170;48.118;11.628;2023-04-25T04:18:28;2.72;;;2.00;;
1014;SDS011;8170;48.118;11.628;2023-04-25T04:19:32;3.42;;;2.47;;
1014;SDS011;8170;48.118;11.628;2023-04-25T04:20:43;2.88;;;2.15;;
1014;SDS011;8170;48.118;11.628;2023-04-25T04:21:46;3.05;;;2.00;;
1014;SDS011;8170;48.118;11.628;2023-04-25T04:22:49;3.60;;;2.00;;
1014;SDS011;8170;48.118;11.628;2023-04-25T04:23:53;2.45;;;1.95;;
1014;SDS011;8170;48.118;11.628;2023-04-25T04:24:56;2.65;;;1.70;;
1014;SDS011;8170;48.118;11.628;2023-04-25T04:26:22;2.28;;;1.75;;
1014;SDS011;8170;48.118;11.628;2023-04-25T04:27:36;3.22;;;2.00;;
1014;SDS011;8170;48.118;11.628;2023-04-25T04:28:51;2.58;;;1.80;;
1014;SDS011;8170;48.118;11.628;2023-04-25T04:30:06;2.35;;;2.00;;
1014;SDS011;8170;48.118;11.628;2023-04-25T04:31:27;2.42;;;2.03;;
1014;SDS011;8170;48.118;11.628;2023-04-25T04:32:31;2.92;;;2.65;;
1014;SDS011;8170;48.118;11.628;2023-04-25T04:33:37;3.72;;;2.20;;
1014;SDS011;8170;48.118;11.628;2023-04-25T04:34:41;2.40;;;1.70;;
1014;SDS011;8170;48.118;11.628;2023-04-25T04:35:47;2.88;;;1.67;;
1014;SDS011;8170;48.118;11.628;2023-04-25T04:36:51;2.65;;;1.55;;
1014;SDS011;8170;48.118;11.628;2023-04-25T04:37:54;2.30;;;1.88;;
1014;SDS011;8170;48.118;11.628;2023-04-25T04:39:00;2.88;;;2.20;;
1014;SDS011;8170;48.118;11.628;2023-04-25T04:40:11;4.43;;;2.10;;
1014;SDS011;8170;48.118;11.628;2023-04-25T04:41:20;4.10;;;2.15;;
1014;SDS011;8170;48.118;11.628;2023-04-25T04:42:44;2.60;;;2.00;;
1014;SDS011;8170;48.118;11.628;2023-04-25T04:44:05;3.45;;;2.50;;
1014;SDS011;8170;48.118;11.628;2023-04-25T04:45:24;3.08;;;2.17;;
1014;SDS011;8170;48.118;11.628;2023-04-25T04:46:56;2.97;;;2.22;;
1014;SDS011;8170;48.118;11.628;2023-04-25T04:48:35;3.05;;;2.20;;
1014;SDS011;8170;48.118;11.628;2023-04-25T04:49:57;2.67;;;2.08;;
1014;SDS011;8170;48.118;11.628;2023-04-25T04:51:11;3.47;;;2.15;;
1014;SDS011;8170;48.118;11.628;2023-04-25T04:52:20;3.55;;;2.30;;
1014;SDS011;8170;48.118;11.628;2023-04-25T04:53:46;4.00;;;2.50;;
1014;SDS011;8170;48.118;11.628;2023-04-25T04:54:55;2.30;;;2.00;;
1014;SDS011;8170;48.118;11.628;2023-04-25T04:56:09;2.20;;;1.73;;
1014;SDS011;8170;48.118;11.628;2023-04-25T04:57:31;2.72;;;1.95;;
1014;SDS011;8170;48.118;11.628;2023-04-25T04:58:55;4.05;;;2.10;;
1014;SDS011;8170;48.118;11.628;2023-04-25T05:00:22;2.72;;;1.80;;
1014;SDS011;8170;48.118;11.628;2023-04-25T05:02:07;2.95;;;1.95;;
1014;SDS011;8170;48.118;11.628;2023-04-25T05:03:34;2.95;;;1.70;;
1014;SDS011;8170;48.118;11.628;2023-04-25T05:04:48;2.97;;;2.67;;
1014;SDS011;8170;48.118;11.628;2023-04-25T05:06:01;4.47;;;2.10;;
1014;SDS011;8170;48.118;11.628;2023-04-25T05:07:11;3.15;;;2.10;;
1014;SDS011;8170;48.118;11.628;2023-04-25T05:08:24;3.40;;;1.90;;
1014;SDS011;8170;48.118;11.628;2023-04-25T05:09:39;2.58;;;2.15;;
1014;SDS011;8170;48.118;11.628;2023-04-25T05:11:13;3.20;;;2.70;;
1014;SDS011;8170;48.118;11.628;2023-04-25T05:12:33;5.32;;;1.90;;
1014;SDS011;8170;48.118;11.628;2023-04-25T05:13:55;2.35;;;1.75;;
1014;SDS011;8170;48.118;11.628;2023-04-25T05:15:30;2.50;;;1.85;;
1014;SDS011;8170;48.118;11.628;2023-04-25T05:16:52;3.30;;;1.90;;
1014;SDS011;8170;48.118;11.628;2023-04-25T05:18:22;4.40;;;2.40;;
1014;SDS011;8170;48.118;11.628;2023-04-25T05:31:33;3.30;;;2.20;;
1014;SDS011;8170;48.118;11.628;2023-04-25T05:32:43;3.60;;;2.80;;
1014;SDS011;8170;48.118;11.628;2023-04-25T05:33:46;3.72;;;2.58;;
1014;SDS011;8170;48.118;11.628;2023-04-25T05:34:51;4.40;;;3.13;;
1014;SDS011;8170;48.118;11.628;2023-04-25T05:35:58;4.45;;;2.90;;
1014;SDS011;8170;48.118;11.628;2023-04-25T05:37:03;3.70;;;2.65;;
1014;SDS011;8170;48.118;11.628;2023-04-25T05:38:07;5.45;;;2.92;;
1014;SDS011;8170;48.118;11.628;2023-04-25T05:39:43;11.48;;;2.60;;
1014;SDS011;8170;48.118;11.628;2023-04-25T05:41:01;4.22;;;2.85;;
1014;SDS011;8170;48.118;11.628;2023-04-25T05:42:27;7.88;;;2.80;;
1014;SDS011;8170;48.118;11.628;2023-04-25T05:43:52;5.22;;;2.50;;
1014;SDS011;8170;48.118;11.628;2023-04-25T05:45:34;4.82;;;2.42;;
1014;SDS011;8170;48.118;11.628;2023-04-25T05:46:43;8.68;;;2.95;;
1014;SDS011;8170;48.118;11.628;2023-04-25T05:48:05;6.30;;;2.60;;
1014;SDS011;8170;48.118;11.628;2023-04-25T05:49:18;4.38;;;2.60;;
1014;SDS011;8170;48.118;11.628;2023-04-25T05:50:35;4.32;;;2.45;;
1014;SDS011;8170;48.118;11.628;2023-04-25T05:51:58;3.40;;;2.40;;
1014;SDS011;8170;48.118;11.628;2023-04-25T05:53:02;2.88;;;2.47;;
1014;SDS011;8170;48.118;11.628;2023-04-25T05:54:06;3.05;;;2.08;;
1014;SDS011;8170;48.118;11.628;2023-04-25T05:55:09;4.50;;;2.55;;
1014;SDS011;8170;48.118;11.628;2023-04-25T05:56:12;3.85;;;2.30;;
1014;SDS011;8170;48.118;11.628;2023-04-25T05:57:19;3.92;;;2.58;;
1014;SDS011;8170;48.118;11.628;2023-04-25T05:58:22;3.83;;;2.55;;
1014;SDS011;8170;48.118;11.628;2023-04-25T05:59:27;5.03;;;2.83;;
1014;SDS011;8170;48.118;11.628;2023-04-25T06:00:30;3.38;;;2.55;;
1014;SDS011;8170;48.118;11.628;2023-04-25T06:01:33;2.72;;;2.50;;
1014;SDS011;8170;48.118;11.628;2023-04-25T06:02:37;6.50;;;2.80;;
1014;SDS011;8170;48.118;11.628;2023-04-25T06:03:40;5.45;;;2.65;;
1014;SDS011;8170;48.118;11.628;2023-04-25T06:04:46;2.83;;;2.15;;
1014;SDS011;8170;48.118;11.628;2023-04-25T06:05:49;5.10;;;2.67;;
1014;SDS011;8170;48.118;11.628;2023-04-25T06:06:53;5.18;;;2.50;;
1014;SDS011;8170;48.118;11.628;2023-04-25T06:07:56;3.10;;;2.13;;
1014;SDS011;8170;48.118;11.628;2023-04-25T06:08:59;3.53;;;2.72;;
1014;SDS011;8170;48.118;11.628;2023-04-25T06:10:06;4.00;;;2.35;;
1014;SDS011;8170;48.118;11.628;2023-04-25T06:11:10;3.58;;;2.70;;
1014;SDS011;8170;48.118;11.628;2023-04-25T06:12:12;4.68;;;3.15;;
1014;SDS011;8170;48.118;11.628;2023-04-25T06:13:16;4.13;;;3.47;;
1014;SDS011;8170;48.118;11.628;2023-04-25T06:14:18;4.55;;;2.92;;
1014;SDS011;8170;48.118;11.628;2023-04-25T06:15:24;3.63;;;2.22;;
1014;SDS011;8170;48.118;11.628;2023-04-25T06:16:29;3.03;;;1.95;;
1014;SDS011;8170;48.118;11.628;2023-04-25T06:17:32;2.90;;;2.20;;
1014;SDS011;8170;48.118;11.628;2023-04-25T06:18:37;3.88;;;2.05;;
1014;SDS011;8170;48.118;11.628;2023-04-25T06:19:40;4.10;;;2.63;;
1014;SDS011;8170;48.118;11.628;2023-04-25T06:20:44;2.67;;;2.20;;
1014;SDS011;8170;48.118;11.628;2023-04-25T06:21:48;3.88;;;1.95;;
1014;SDS011;8170;48.118;11.628;2023-04-25T06:22:50;3.67;;;1.98;;
1014;SDS011;8170;48.118;11.628;2023-04-25T06:23:58;2.75;;;2.30;;
1014;SDS011;8170;48.118;11.628;2023-04-25T06:25:03;3.90;;;2.22;;
1014;SDS011;8170;48.118;11.628;2023-04-25T06:26:06;2.63;;;2.20;;
1014;SDS011;8170;48.118;11.628;2023-04-25T06:27:12;4.85;;;2.50;;
1014;SDS011;8170;48.118;11.628;2023-04-25T06:28:24;2.95;;;2.65;;
1014;SDS011;8170;48.118;11.628;2023-04-25T06:29:36;4.75;;;2.47;;
1014;SDS011;8170;48.118;11.628;2023-04-25T06:30:40;2.60;;;2.40;;
1014;SDS011;8170;48.118;11.628;2023-04-25T06:31:46;3.75;;;2.25;;
1014;SDS011;8170;48.118;11.628;2023-04-25T06:32:50;2.67;;;2.42;;
1014;SDS011;8170;48.118;11.628;2023-04-25T06:33:53;3.65;;;2.60;;
1014;SDS011;8170;48.118;11.628;2023-04-25T06:34:58;3.20;;;2.63;;
1014;SDS011;8170;48.118;11.628;2023-04-25T06:36:02;2.88;;;2.20;;
1014;SDS011;8170;48.118;11.628;2023-04-25T06:37:06;4.45;;;2.70;;
1014;SDS011;8170;48.118;11.628;2023-04-25T06:38:09;6.95;;;2.92;;
1014;SDS011;8170;48.118;11.628;2023-04-25T06:39:19;6.10;;;2.92;;
1014;SDS011;8170;48.118;11.628;2023-04-25T06:40:24;5.70;;;2.78;;
1014;SDS011;8170;48.118;11.628;2023-04-25T06:41:27;5.57;;;3.75;;
1014;SDS011;8170;48.118;11.628;2023-04-25T06:42:35;5.35;;;3.58;;
1014;SDS011;8170;48.118;11.628;2023-04-25T06:43:57;4.95;;;4.45;;
1014;SDS011;8170;48.118;11.628;2023-04-25T06:45:08;6.57;;;4.28;;
1014;SDS011;8170;48.118;11.628;2023-04-25T06:46:11;5.47;;;3.75;;
1014;SDS011;8170;48.118;11.628;2023-04-25T06:47:18;4.70;;;3.90;;
1014;SDS011;8170;48.118;11.628;2023-04-25T06:48:22;5.95;;;3.72;;
1014;SDS011;8170;48.118;11.628;2023-04-25T06:49:27;10.60;;;3.35;;
1014;SDS011;8170;48.118;11.628;2023-04-25T06:50:30;4.30;;;3.08;;
1014;SDS011;8170;48.118;11.628;2023-04-25T06:51:34;4.25;;;2.83;;
1014;SDS011;8170;48.118;11.628;2023-04-25T06:52:38;5.47;;;2.95;;
1014;SDS011;8170;48.118;11.628;2023-04-25T06:53:42;4.93;;;2.88;;
1014;SDS011;8170;48.118;11.628;2023-04-25T06:54:53;3.45;;;3.15;;
1014;SDS011;8170;48.118;11.628;2023-04-25T06:56:19;4.63;;;2.47;;
1014;SDS011;8170;48.118;11.628;2023-04-25T06:57:30;3.47;;;2.90;;
1014;SDS011;8170;48.118;11.628;2023-04-25T06:58:49;3.95;;;2.70;;
1014;SDS011;8170;48.118;11.628;2023-04-25T07:00:03;4.55;;;3.45;;
1014;SDS011;8170;48.118;11.628;2023-04-25T07:01:17;6.60;;;4.55;;
1014;SDS011;8170;48.118;11.628;2023-04-25T07:02:21;4.70;;;3.20;;
1014;SDS011;8170;48.118;11.628;2023-04-25T07:03:27;4.20;;;3.58;;
1014;SDS011;8170;48.118;11.628;2023-04-25T07:04:35;4.07;;;3.60;;
1014;SDS011;8170;48.118;11.628;2023-04-25T07:05:40;4.45;;;3.90;;
1014;SDS011;8170;48.118;11.628;2023-04-25T07:06:45;4.82;;;3.45;;
1014;SDS011;8170;48.118;11.628;2023-04-25T07:07:53;5.50;;;3.70;;
1014;SDS011;8170;48.118;11.628;2023-04-25T07:08:57;5.55;;;4.25;;